createdAt,value
2022-09-07T00:02:48.752Z,16.73
2022-09-07T00:05:46.305Z,16.72
2022-09-07T00:08:44.497Z,16.70
2022-09-07T00:11:41.970Z,16.69
2022-09-07T00:14:39.464Z,16.65
2022-09-07T00:17:36.949Z,16.62
2022-09-07T00:20:34.444Z,16.58
2022-09-07T00:23:31.925Z,16.56
2022-09-07T00:26:29.375Z,16.54
2022-09-07T00:29:26.855Z,16.51
2022-09-07T00:32:24.338Z,16.48
2022-09-07T00:35:21.854Z,16.46
2022-09-07T00:38:19.340Z,16.43
2022-09-07T00:41:16.838Z,16.40
2022-09-07T00:44:14.321Z,16.36
2022-09-07T00:47:11.789Z,16.34
2022-09-07T00:50:09.532Z,16.31
2022-09-07T00:53:07.079Z,16.28
2022-09-07T00:56:04.631Z,16.25
2022-09-07T00:59:02.371Z,16.23
2022-09-07T01:01:59.873Z,16.21
2022-09-07T01:04:57.446Z,16.18
2022-09-07T01:07:57.010Z,16.16
2022-09-07T01:10:54.512Z,16.15
2022-09-07T01:13:52.011Z,16.13
2022-09-07T01:16:49.500Z,16.12
2022-09-07T01:19:47.004Z,16.09
2022-09-07T01:22:44.532Z,16.07
2022-09-07T01:25:41.984Z,16.06
2022-09-07T01:28:39.659Z,16.04
2022-09-07T01:31:37.222Z,16.01
2022-09-07T01:34:34.740Z,16.00
2022-09-07T01:37:32.205Z,15.98
2022-09-07T01:40:29.701Z,15.95
2022-09-07T01:43:27.706Z,15.93
2022-09-07T01:46:25.184Z,15.92
2022-09-07T01:49:22.726Z,15.90
2022-09-07T01:52:20.191Z,15.88
2022-09-07T01:55:17.686Z,15.85
2022-09-07T01:58:15.153Z,15.83
2022-09-07T02:01:12.697Z,15.81
2022-09-07T02:04:10.474Z,15.78
2022-09-07T02:07:07.955Z,15.75
2022-09-07T02:10:05.453Z,15.73
2022-09-07T02:13:03.215Z,15.70
2022-09-07T02:16:00.776Z,15.67
2022-09-07T02:18:58.427Z,15.65
2022-09-07T02:21:55.932Z,15.63
2022-09-07T02:24:53.389Z,15.61
2022-09-07T02:27:50.860Z,15.60
2022-09-07T02:30:48.373Z,15.59
2022-09-07T02:33:45.904Z,15.58
2022-09-07T02:36:43.407Z,15.58
2022-09-07T02:39:40.961Z,15.57
2022-09-07T02:42:38.483Z,15.55
2022-09-07T02:45:35.941Z,15.54
2022-09-07T02:48:33.419Z,15.52
2022-09-07T02:51:30.913Z,15.50
2022-09-07T02:54:28.384Z,15.48
2022-09-07T02:57:25.907Z,15.45
2022-09-07T03:00:26.422Z,15.42
2022-09-07T03:03:24.008Z,15.40
2022-09-07T03:06:21.467Z,15.37
2022-09-07T03:09:18.939Z,15.35
2022-09-07T03:12:16.484Z,15.34
2022-09-07T03:15:14.006Z,15.33
2022-09-07T03:18:12.568Z,15.30
2022-09-07T03:21:10.053Z,15.29
2022-09-07T03:24:07.538Z,15.27
2022-09-07T03:27:05.061Z,15.24
2022-09-07T03:30:02.526Z,15.23
2022-09-07T03:33:00.005Z,15.21
2022-09-07T03:35:57.602Z,15.18
2022-09-07T03:38:55.100Z,15.16
2022-09-07T03:41:52.886Z,15.13
2022-09-07T03:44:50.664Z,15.11
2022-09-07T03:47:49.330Z,15.09
2022-09-07T03:50:46.863Z,15.08
2022-09-07T03:53:44.350Z,15.07
2022-09-07T03:56:41.841Z,15.06
2022-09-07T03:59:39.299Z,15.04
2022-09-07T04:02:36.812Z,15.03
2022-09-07T04:05:34.309Z,15.02
2022-09-07T04:08:31.960Z,15.02
2022-09-07T04:11:29.565Z,15.00
2022-09-07T04:14:27.038Z,14.99
2022-09-07T04:17:24.533Z,14.99
2022-09-07T04:20:22.011Z,14.98
2022-09-07T04:23:19.502Z,14.97
2022-09-07T04:26:16.953Z,14.96
2022-09-07T04:29:14.449Z,14.96
2022-09-07T04:32:15.626Z,14.96
2022-09-07T04:35:13.472Z,14.97
2022-09-07T04:38:11.003Z,14.97
2022-09-07T04:41:09.517Z,14.97
2022-09-07T04:44:07.502Z,14.99
2022-09-07T04:47:05.008Z,15.00
2022-09-07T04:50:02.740Z,15.03
2022-09-07T04:53:00.227Z,15.04
2022-09-07T04:55:57.713Z,15.05
2022-09-07T04:58:55.203Z,15.08
2022-09-07T05:01:52.755Z,15.10
2022-09-07T05:04:50.298Z,15.13
2022-09-07T05:07:47.794Z,15.16
2022-09-07T05:10:45.286Z,15.20
2022-09-07T05:13:42.778Z,15.25
2022-09-07T05:16:40.296Z,15.30
2022-09-07T05:19:37.837Z,15.36
2022-09-07T05:22:35.724Z,15.43
2022-09-07T05:25:33.341Z,15.50
2022-09-07T05:28:31.228Z,15.57
2022-09-07T05:31:28.946Z,15.65
2022-09-07T05:37:28.782Z,15.85
2022-09-07T05:40:26.263Z,15.95
2022-09-07T05:43:24.050Z,16.07
2022-09-07T05:46:21.579Z,16.20
2022-09-07T05:49:19.114Z,16.35
2022-09-07T05:52:16.591Z,16.52
2022-09-07T05:55:29.445Z,16.70
2022-09-07T05:58:28.121Z,16.91
2022-09-07T06:01:25.670Z,17.10
2022-09-07T06:04:23.175Z,17.29
2022-09-07T06:07:22.448Z,17.46
2022-09-07T06:13:38.513Z,17.79
2022-09-07T06:16:36.029Z,17.93
2022-09-07T06:19:33.547Z,18.00
2022-09-07T06:22:31.460Z,18.04
2022-09-07T06:25:28.994Z,18.08
2022-09-07T06:28:26.465Z,18.16
2022-09-07T06:31:24.129Z,18.34
2022-09-07T06:34:23.090Z,18.56
2022-09-07T06:37:20.569Z,18.85
2022-09-07T06:40:18.058Z,19.17
2022-09-07T06:43:15.521Z,19.52
2022-09-07T06:49:30.430Z,20.25
2022-09-07T06:52:28.279Z,20.63
2022-09-07T06:55:25.896Z,21.02
2022-09-07T06:58:24.926Z,21.42
2022-09-07T07:01:22.493Z,21.84
2022-09-07T07:04:19.970Z,22.25
2022-09-07T07:07:17.462Z,22.70
2022-09-07T07:10:14.961Z,23.13
2022-09-07T07:13:12.447Z,23.54
2022-09-07T07:16:09.947Z,23.98
2022-09-07T07:19:07.459Z,24.23
2022-09-07T07:22:18.711Z,24.26
2022-09-07T07:25:22.422Z,24.24
2022-09-07T07:31:37.369Z,24.18
2022-09-07T07:34:34.866Z,24.30
2022-09-07T07:37:32.445Z,24.54
2022-09-07T07:40:31.864Z,24.73
2022-09-07T07:43:30.939Z,24.93
2022-09-07T07:46:28.707Z,25.20
2022-09-07T07:49:26.221Z,25.60
2022-09-07T07:55:43.860Z,26.70
2022-09-07T07:58:41.722Z,27.19
2022-09-07T08:01:39.239Z,27.60
2022-09-07T08:04:37.003Z,28.01
2022-09-07T08:07:34.461Z,28.36
2022-09-07T08:10:31.885Z,28.72
2022-09-07T08:13:29.444Z,29.17
2022-09-07T08:16:27.020Z,29.67
2022-09-07T08:19:24.652Z,30.11
2022-09-07T08:22:22.083Z,30.38
2022-09-07T08:25:19.800Z,30.73
2022-09-07T08:28:17.247Z,31.04
2022-09-07T08:31:14.776Z,31.25
2022-09-07T08:34:12.256Z,31.48
2022-09-07T08:37:09.702Z,31.75
2022-09-07T08:40:07.295Z,32.04
2022-09-07T08:43:05.008Z,32.30
2022-09-07T08:46:02.433Z,32.64
2022-09-07T08:48:59.886Z,32.98
2022-09-07T08:51:57.304Z,33.16
2022-09-07T08:54:54.800Z,33.32
2022-09-07T08:57:52.286Z,33.58
2022-09-07T09:00:50.254Z,33.87
2022-09-07T09:07:05.317Z,34.46
2022-09-07T09:10:02.891Z,34.75
2022-09-07T09:13:01.580Z,35.03
2022-09-07T09:15:59.102Z,35.20
2022-09-07T09:18:56.597Z,35.45
2022-09-07T09:21:54.034Z,35.67
2022-09-07T09:24:51.506Z,35.96
2022-09-07T09:27:48.995Z,36.26
2022-09-07T09:30:47.933Z,36.56
2022-09-07T09:33:45.794Z,36.90
2022-09-07T09:36:43.243Z,37.29
2022-09-07T09:39:42.764Z,37.78
2022-09-07T09:42:40.878Z,38.26
2022-09-07T09:48:55.708Z,38.95
2022-09-07T09:55:33.335Z,39.52
2022-09-07T10:05:03.251Z,41.11
2022-09-07T10:08:00.678Z,41.60
2022-09-07T10:10:58.111Z,41.99
2022-09-07T10:13:55.964Z,42.35
2022-09-07T10:16:53.399Z,42.76
2022-09-07T10:19:50.891Z,43.24
2022-09-07T10:22:51.434Z,43.64
2022-09-07T10:25:49.112Z,43.85
2022-09-07T10:32:03.939Z,44.48
2022-09-07T10:35:01.361Z,44.70
2022-09-07T10:37:58.805Z,44.81
2022-09-07T10:40:56.237Z,44.86
2022-09-07T10:43:53.797Z,44.96
2022-09-07T10:46:58.580Z,44.86
2022-09-07T10:53:39.613Z,44.45
2022-09-07T10:56:31.063Z,44.33
2022-09-07T11:00:07.501Z,44.38
2022-09-07T11:03:24.841Z,44.64
2022-09-07T11:06:04.471Z,44.71
2022-09-07T11:09:18.058Z,44.77
2022-09-07T11:12:16.162Z,45.06
2022-09-07T11:15:13.589Z,45.46
2022-09-07T11:18:11.030Z,45.68
2022-09-07T11:21:08.486Z,45.86
2022-09-07T11:24:09.364Z,46.03
2022-09-07T11:27:06.825Z,46.20
2022-09-07T11:30:05.145Z,46.32
2022-09-07T11:33:02.608Z,46.53
2022-09-07T11:36:02.300Z,46.59
2022-09-07T11:39:00.037Z,46.60
2022-09-07T11:41:57.714Z,46.61
2022-09-07T11:44:55.330Z,46.63
2022-09-07T11:47:52.786Z,46.66
2022-09-07T11:50:50.283Z,46.79
2022-09-07T11:53:47.729Z,46.93
2022-09-07T11:56:45.574Z,46.94
2022-09-07T11:59:43.423Z,46.68
2022-09-07T12:02:58.410Z,46.46
2022-09-07T12:05:57.125Z,46.36
2022-09-07T12:08:54.571Z,46.35
2022-09-07T12:11:52.029Z,46.32
2022-09-07T12:14:50.533Z,46.08
2022-09-07T12:17:47.979Z,45.93
2022-09-07T12:20:45.410Z,45.83
2022-09-07T12:23:42.851Z,45.60
2022-09-07T12:26:40.275Z,45.09
2022-09-07T12:29:37.714Z,44.41
2022-09-07T12:35:52.551Z,42.92
2022-09-07T12:38:50.148Z,42.17
2022-09-07T12:41:47.895Z,41.53
2022-09-07T12:44:45.602Z,41.04
2022-09-07T12:47:43.044Z,40.61
2022-09-07T12:50:42.279Z,40.17
2022-09-07T12:53:39.997Z,39.78
2022-09-07T12:56:37.426Z,39.47
2022-09-07T12:59:34.864Z,39.20
2022-09-07T13:02:32.413Z,38.81
2022-09-07T13:05:30.668Z,38.56
2022-09-07T13:08:28.217Z,38.47
2022-09-07T13:11:25.668Z,38.31
2022-09-07T13:14:23.373Z,38.09
2022-09-07T13:17:20.950Z,38.04
2022-09-07T13:20:18.470Z,38.03
2022-09-07T13:23:15.906Z,37.87
2022-09-07T13:26:13.331Z,37.57
2022-09-07T13:29:10.785Z,37.42
2022-09-07T13:32:08.232Z,37.32
2022-09-07T13:35:05.683Z,37.32
2022-09-07T13:38:03.114Z,37.32
2022-09-07T13:41:00.537Z,37.15
2022-09-07T13:43:58.485Z,36.83
2022-09-07T13:46:55.911Z,36.46
2022-09-07T13:49:55.903Z,36.11
2022-09-07T13:52:53.890Z,35.99
2022-09-07T13:55:51.324Z,35.99
2022-09-07T13:58:48.771Z,36.07
2022-09-07T14:01:46.280Z,36.20
2022-09-07T14:04:44.409Z,36.28
2022-09-07T14:07:41.838Z,36.21
2022-09-07T14:10:39.264Z,36.16
2022-09-07T14:13:36.712Z,36.04
2022-09-07T14:16:34.356Z,35.83
2022-09-07T14:19:31.812Z,35.55
2022-09-07T14:22:29.250Z,35.34
2022-09-07T14:25:26.973Z,35.29
2022-09-07T14:28:24.732Z,35.26
2022-09-07T14:31:22.252Z,35.11
2022-09-07T14:34:19.743Z,34.96
2022-09-07T14:37:17.160Z,34.95
2022-09-07T14:40:14.691Z,34.98
2022-09-07T14:43:12.161Z,35.01
2022-09-07T14:46:09.654Z,34.99
2022-09-07T14:49:08.000Z,34.95
2022-09-07T14:52:05.632Z,34.83
2022-09-07T14:55:03.053Z,34.70
2022-09-07T14:58:04.207Z,34.52
2022-09-07T15:04:22.442Z,33.90
2022-09-07T15:07:20.038Z,33.58
2022-09-07T15:10:17.482Z,33.26
2022-09-07T15:13:14.930Z,32.97
2022-09-07T15:16:13.283Z,32.66
2022-09-07T15:19:10.809Z,32.37
2022-09-07T15:22:08.295Z,32.09
2022-09-07T15:25:05.772Z,31.84
2022-09-07T15:28:03.191Z,31.62
2022-09-07T15:34:18.227Z,31.22
2022-09-07T15:40:33.752Z,30.88
2022-09-07T15:43:31.384Z,30.71
2022-09-07T15:46:29.055Z,30.58
2022-09-07T15:49:28.043Z,30.43
2022-09-07T15:52:25.804Z,30.27
2022-09-07T15:55:24.506Z,30.09
2022-09-07T15:58:21.915Z,29.93
2022-09-07T16:04:38.795Z,29.62
2022-09-07T16:10:55.320Z,29.34
2022-09-07T16:13:53.446Z,29.20
2022-09-07T16:20:08.384Z,28.96
2022-09-07T16:23:13.981Z,28.83
2022-09-07T16:26:12.385Z,28.71
2022-09-07T16:29:10.480Z,28.60
2022-09-07T16:35:25.303Z,28.36
2022-09-07T16:41:40.183Z,28.11
2022-09-07T16:44:37.628Z,28.02
2022-09-07T16:47:35.062Z,27.92
2022-09-07T16:50:32.524Z,27.80
2022-09-07T16:53:29.974Z,27.70
2022-09-07T16:56:27.415Z,27.62
2022-09-07T16:59:26.871Z,27.55
2022-09-07T17:02:24.315Z,27.47
2022-09-07T17:05:21.810Z,27.39
2022-09-07T17:08:19.237Z,27.30
2022-09-07T17:11:17.180Z,27.19
2022-09-07T17:14:14.666Z,27.08
2022-09-07T17:17:12.093Z,26.97
2022-09-07T17:20:09.530Z,26.86
2022-09-07T17:23:07.009Z,26.75
2022-09-07T17:26:04.430Z,26.63
2022-09-07T17:29:01.866Z,26.51
2022-09-07T17:35:17.755Z,26.27
2022-09-07T17:41:32.669Z,26.04
2022-09-07T17:44:35.844Z,25.94
2022-09-07T17:47:35.456Z,25.84
2022-09-07T17:50:32.986Z,25.74
2022-09-07T17:53:30.528Z,25.63
2022-09-07T17:56:28.041Z,25.52
2022-09-07T18:02:43.217Z,25.28
2022-09-07T18:05:41.036Z,25.16
2022-09-07T18:08:38.868Z,25.05
2022-09-07T18:11:45.855Z,24.94
2022-09-07T18:14:44.830Z,24.82
2022-09-07T18:17:42.551Z,24.70
2022-09-07T18:20:40.405Z,24.57
2022-09-07T18:23:38.261Z,24.45
2022-09-07T18:26:36.130Z,24.32
2022-09-07T18:29:34.557Z,24.20
2022-09-07T18:32:32.201Z,24.09
2022-09-07T18:35:30.035Z,23.97
2022-09-07T18:38:27.924Z,23.86
2022-09-07T18:41:25.769Z,23.75
2022-09-07T18:47:47.519Z,23.52
2022-09-07T18:50:45.559Z,23.41
2022-09-07T18:53:43.924Z,23.31
2022-09-07T18:56:41.830Z,23.20
2022-09-07T18:59:40.985Z,23.10
2022-09-07T19:02:39.121Z,23.03
2022-09-07T19:05:53.112Z,22.98
2022-09-07T19:08:51.315Z,22.91
2022-09-07T19:11:49.959Z,22.86
2022-09-07T19:14:47.854Z,22.79
2022-09-07T19:17:45.805Z,22.73
2022-09-07T19:20:44.172Z,22.65
2022-09-07T19:23:42.075Z,22.58
2022-09-07T19:26:40.253Z,22.52
2022-09-07T19:29:38.166Z,22.46
2022-09-07T19:32:35.957Z,22.39
2022-09-07T19:35:34.138Z,22.31
2022-09-07T19:38:32.189Z,22.25
2022-09-07T19:41:30.150Z,22.18
2022-09-07T19:44:28.536Z,22.12
2022-09-07T19:47:26.449Z,22.04
2022-09-07T19:50:24.367Z,21.97
2022-09-07T19:53:23.601Z,21.89
2022-09-07T19:56:22.582Z,21.81
2022-09-07T19:59:20.766Z,21.75
2022-09-07T20:02:18.717Z,21.67
2022-09-07T20:05:16.713Z,21.59
2022-09-07T20:08:14.611Z,21.52
2022-09-07T20:11:12.435Z,21.45
2022-09-07T20:14:10.264Z,21.38
2022-09-07T20:17:08.128Z,21.33
2022-09-07T20:20:06.405Z,21.28
2022-09-07T20:23:04.096Z,21.20
2022-09-07T20:26:01.967Z,21.14
2022-09-07T20:29:16.754Z,21.07
2022-09-07T20:32:18.052Z,21.01
2022-09-07T20:35:15.631Z,20.95
2022-09-07T20:38:13.195Z,20.89
2022-09-07T20:41:10.650Z,20.83
2022-09-07T20:44:08.065Z,20.77
2022-09-07T20:47:05.722Z,20.72
2022-09-07T20:50:03.244Z,20.66
2022-09-07T20:53:00.690Z,20.57
2022-09-07T20:55:58.137Z,20.51
2022-09-07T20:58:55.576Z,20.44
2022-09-07T21:01:53.057Z,20.37
2022-09-07T21:04:50.535Z,20.29
2022-09-07T21:07:47.982Z,20.23
2022-09-07T21:10:45.413Z,20.18
2022-09-07T21:13:42.887Z,20.13
2022-09-07T21:16:40.462Z,20.08
2022-09-07T21:19:37.993Z,20.01
2022-09-07T21:22:35.434Z,19.96
2022-09-07T21:25:32.871Z,19.93
2022-09-07T21:28:30.331Z,19.90
2022-09-07T21:31:27.826Z,19.87
2022-09-07T21:34:25.339Z,19.83
2022-09-07T21:37:22.799Z,19.80
2022-09-07T21:40:20.232Z,19.78
2022-09-07T21:43:17.665Z,19.75
2022-09-07T21:46:15.824Z,19.72
2022-09-07T21:49:13.280Z,19.69
2022-09-07T21:52:10.709Z,19.66
2022-09-07T21:55:08.153Z,19.63
2022-09-07T21:58:05.746Z,19.59
2022-09-07T22:01:03.460Z,19.55
2022-09-07T22:04:00.928Z,19.50
2022-09-07T22:06:58.349Z,19.46
2022-09-07T22:09:55.786Z,19.41
2022-09-07T22:12:53.272Z,19.37
2022-09-07T22:15:50.750Z,19.32
2022-09-07T22:18:48.220Z,19.28
2022-09-07T22:21:45.633Z,19.23
2022-09-07T22:24:43.089Z,19.18
2022-09-07T22:27:40.522Z,19.14
2022-09-07T22:30:37.966Z,19.08
2022-09-07T22:33:35.391Z,19.04
2022-09-07T22:36:32.933Z,19.01
2022-09-07T22:39:30.400Z,18.97
2022-09-07T22:42:27.833Z,18.92
2022-09-07T22:45:25.264Z,18.87
2022-09-07T22:48:23.217Z,18.84
2022-09-07T22:51:20.624Z,18.80
2022-09-07T22:54:18.070Z,18.75
2022-09-07T22:57:15.522Z,18.69
2022-09-07T23:00:13.275Z,18.62
2022-09-07T23:03:10.788Z,18.58
2022-09-07T23:06:08.913Z,18.52
2022-09-07T23:09:06.862Z,18.48
2022-09-07T23:12:04.638Z,18.45
2022-09-07T23:15:02.080Z,18.41
2022-09-07T23:17:59.519Z,18.36
2022-09-07T23:21:00.282Z,18.33
2022-09-07T23:23:58.114Z,18.28
2022-09-07T23:26:55.567Z,18.25
2022-09-07T23:29:53.000Z,18.20
2022-09-07T23:32:50.445Z,18.15
2022-09-07T23:35:47.962Z,18.11
2022-09-07T23:38:45.451Z,18.08
2022-09-07T23:41:42.890Z,18.04
2022-09-07T23:44:40.327Z,18.00
2022-09-07T23:47:37.758Z,17.97
2022-09-07T23:50:35.461Z,17.94
2022-09-07T23:53:33.018Z,17.91
2022-09-07T23:56:31.322Z,17.88
2022-09-07T23:59:28.779Z,17.85
